createdAt,value
2022-09-26T00:01:25.851Z,11.61
2022-09-26T00:04:22.344Z,11.54
2022-09-26T00:07:09.901Z,11.49
2022-09-26T00:09:56.674Z,11.47
2022-09-26T00:12:45.637Z,11.47
2022-09-26T00:15:32.255Z,11.45
2022-09-26T00:18:18.903Z,11.41
2022-09-26T00:21:07.373Z,11.41
2022-09-26T00:23:55.710Z,11.40
2022-09-26T00:26:42.439Z,11.41
2022-09-26T00:29:30.565Z,11.43
2022-09-26T00:32:17.583Z,11.42
2022-09-26T00:35:04.461Z,11.45
2022-09-26T00:37:51.124Z,11.47
2022-09-26T00:40:38.728Z,11.49
2022-09-26T00:43:28.311Z,11.54
2022-09-26T00:46:26.933Z,11.54
2022-09-26T00:49:19.481Z,11.54
2022-09-26T00:52:11.189Z,11.46
2022-09-26T00:55:02.480Z,11.50
2022-09-26T00:57:53.392Z,11.56
2022-09-26T01:00:42.525Z,11.57
2022-09-26T01:03:33.043Z,11.53
2022-09-26T01:06:21.235Z,11.49
2022-09-26T01:09:09.290Z,11.50
2022-09-26T01:11:56.622Z,11.49
2022-09-26T01:14:45.523Z,11.49
2022-09-26T01:17:32.563Z,11.49
2022-09-26T01:20:29.402Z,11.52
2022-09-26T01:24:00.519Z,11.49
2022-09-26T01:27:21.007Z,11.45
2022-09-26T01:30:12.764Z,11.25
2022-09-26T01:33:30.705Z,11.29
2022-09-26T01:36:49.531Z,11.27
2022-09-26T01:39:48.845Z,11.26
2022-09-26T01:42:47.175Z,11.23
2022-09-26T01:45:45.237Z,11.18
2022-09-26T01:48:36.352Z,11.13
2022-09-26T01:51:27.799Z,11.10
2022-09-26T01:54:20.848Z,11.03
2022-09-26T01:57:12.792Z,10.97
2022-09-26T02:00:03.474Z,10.91
2022-09-26T02:02:52.317Z,10.83
2022-09-26T02:05:44.700Z,10.78
2022-09-26T02:08:36.877Z,10.76
2022-09-26T02:11:24.804Z,10.70
2022-09-26T02:14:16.374Z,10.81
2022-09-26T02:17:08.507Z,10.74
2022-09-26T02:20:00.840Z,10.76
2022-09-26T02:22:47.858Z,10.72
2022-09-26T02:25:35.913Z,10.71
2022-09-26T02:28:23.615Z,10.68
2022-09-26T02:31:12.429Z,10.68
2022-09-26T02:33:59.545Z,10.65
2022-09-26T02:36:49.264Z,10.60
2022-09-26T02:39:36.937Z,10.57
2022-09-26T02:42:50.207Z,10.52
2022-09-26T02:45:43.847Z,10.51
2022-09-26T02:48:45.842Z,10.47
2022-09-26T02:51:45.743Z,10.38
2022-09-26T02:54:46.537Z,10.34
2022-09-26T02:57:44.989Z,10.25
2022-09-26T03:00:47.423Z,10.22
2022-09-26T03:03:42.270Z,10.17
2022-09-26T03:06:34.552Z,10.18
2022-09-26T03:09:23.669Z,10.16
2022-09-26T03:12:14.205Z,10.21
2022-09-26T03:15:04.183Z,10.25
2022-09-26T03:17:55.159Z,10.23
2022-09-26T03:20:42.664Z,10.25
2022-09-26T03:23:30.168Z,10.37
2022-09-26T03:26:24.783Z,10.29
2022-09-26T03:29:20.507Z,10.21
2022-09-26T03:32:07.268Z,10.25
2022-09-26T03:34:53.992Z,10.23
2022-09-26T03:37:41.013Z,10.19
2022-09-26T03:40:28.237Z,10.16
2022-09-26T03:43:44.068Z,10.13
2022-09-26T03:46:39.081Z,10.07
2022-09-26T03:49:27.351Z,10.05
2022-09-26T03:52:14.828Z,10.03
2022-09-26T03:55:02.841Z,10.02
2022-09-26T03:57:49.657Z,10.04
2022-09-26T04:00:47.517Z,10.02
2022-09-26T04:03:37.102Z,10.04
2022-09-26T04:06:23.910Z,10.03
2022-09-26T04:09:16.599Z,10.19
2022-09-26T04:12:07.972Z,10.10
2022-09-26T04:14:57.498Z,10.06
2022-09-26T04:17:44.736Z,10.01
2022-09-26T04:20:33.892Z,9.98
2022-09-26T04:23:21.496Z,9.93
2022-09-26T04:26:10.260Z,9.90
2022-09-26T04:28:59.198Z,9.86
2022-09-26T04:32:12.620Z,9.80
2022-09-26T04:35:25.551Z,9.77
2022-09-26T04:38:13.740Z,9.76
2022-09-26T04:41:05.280Z,9.75
2022-09-26T04:43:55.100Z,9.70
2022-09-26T04:46:41.817Z,9.66
2022-09-26T04:49:29.932Z,9.64
2022-09-26T04:52:16.438Z,9.62
2022-09-26T04:55:05.149Z,9.58
2022-09-26T04:57:51.949Z,9.51
2022-09-26T05:00:42.405Z,9.51
2022-09-26T05:03:29.619Z,9.45
2022-09-26T05:06:17.750Z,9.39
2022-09-26T05:09:04.699Z,9.40
2022-09-26T05:12:05.178Z,9.32
2022-09-26T05:14:57.005Z,9.31
2022-09-26T05:17:45.155Z,9.28
2022-09-26T05:20:31.960Z,9.28
2022-09-26T05:23:44.393Z,9.31
2022-09-26T05:26:41.497Z,9.32
2022-09-26T05:29:29.252Z,9.38
2022-09-26T05:32:22.356Z,9.38
2022-09-26T05:35:11.420Z,9.41
2022-09-26T05:38:01.392Z,9.43
2022-09-26T05:40:57.102Z,9.49
2022-09-26T05:43:45.417Z,9.52
2022-09-26T05:46:34.948Z,9.54
2022-09-26T05:49:28.671Z,9.60
2022-09-26T05:52:15.425Z,9.65
2022-09-26T05:55:02.801Z,9.69
2022-09-26T05:58:10.079Z,9.77
2022-09-26T06:01:34.123Z,9.88
2022-09-26T06:04:31.919Z,10.06
2022-09-26T06:07:37.825Z,10.45
2022-09-26T06:10:29.359Z,10.54
2022-09-26T06:13:21.512Z,10.51
2022-09-26T06:16:14.490Z,10.52
2022-09-26T06:19:02.727Z,10.67
2022-09-26T06:21:49.738Z,10.74
2022-09-26T06:24:36.987Z,10.96
2022-09-26T06:27:25.535Z,10.89
2022-09-26T06:30:12.680Z,10.93
2022-09-26T06:33:00.105Z,10.94
2022-09-26T06:36:27.065Z,10.93
2022-09-26T06:39:14.961Z,11.27
2022-09-26T06:42:02.782Z,11.35
2022-09-26T06:44:55.161Z,11.35
2022-09-26T06:47:44.502Z,11.36
2022-09-26T06:51:00.612Z,11.64
2022-09-26T06:53:50.812Z,11.63
2022-09-26T06:56:44.037Z,11.71
2022-09-26T06:59:31.832Z,11.79
2022-09-26T07:02:29.700Z,11.84
2022-09-26T07:05:42.409Z,11.98
2022-09-26T07:09:00.506Z,11.95
2022-09-26T07:12:13.061Z,12.00
2022-09-26T07:14:53.927Z,11.84
2022-09-26T07:17:48.166Z,11.91
2022-09-26T07:20:52.140Z,11.97
2022-09-26T07:24:00.032Z,11.91
2022-09-26T07:26:48.550Z,12.06
2022-09-26T07:29:35.238Z,12.23
2022-09-26T07:32:22.094Z,12.26
2022-09-26T07:35:21.714Z,12.40
2022-09-26T07:38:08.827Z,12.44
2022-09-26T07:40:55.684Z,12.52
2022-09-26T07:47:08.431Z,12.65
2022-09-26T07:50:15.152Z,12.82
2022-09-26T07:53:19.148Z,12.91
2022-09-26T07:56:24.886Z,13.05
2022-09-26T07:59:22.939Z,13.11
2022-09-26T08:02:24.895Z,13.21
2022-09-26T08:05:15.629Z,13.34
2022-09-26T08:08:02.973Z,13.56
2022-09-26T08:11:16.101Z,13.67
2022-09-26T08:14:05.663Z,13.68
2022-09-26T08:16:59.424Z,13.75
2022-09-26T08:19:46.417Z,13.75
2022-09-26T08:22:33.090Z,13.81
2022-09-26T08:25:19.839Z,13.99
2022-09-26T08:28:13.041Z,14.21
2022-09-26T08:31:05.256Z,14.49
2022-09-26T08:33:54.089Z,14.40
2022-09-26T08:36:43.140Z,14.41
2022-09-26T08:39:38.104Z,14.39
2022-09-26T08:43:04.624Z,14.43
2022-09-26T08:46:32.618Z,14.41
2022-09-26T08:50:02.757Z,14.67
2022-09-26T08:52:52.768Z,14.65
2022-09-26T08:55:44.352Z,14.80
2022-09-26T08:58:41.007Z,14.85
2022-09-26T09:01:31.344Z,14.58
2022-09-26T09:04:46.514Z,14.80
2022-09-26T09:07:37.116Z,14.80
2022-09-26T09:10:41.075Z,14.81
2022-09-26T09:13:57.665Z,15.02
2022-09-26T09:17:15.182Z,15.03
2022-09-26T09:20:29.728Z,15.18
2022-09-26T09:24:11.027Z,15.23
2022-09-26T09:30:22.646Z,15.21
2022-09-26T09:33:18.928Z,15.31
2022-09-26T09:36:19.188Z,15.61
2022-09-26T09:39:34.205Z,15.79
2022-09-26T09:42:29.949Z,15.79
2022-09-26T09:45:20.677Z,15.49
2022-09-26T09:48:12.046Z,15.43
2022-09-26T09:51:10.656Z,15.55
2022-09-26T09:54:14.386Z,15.53
2022-09-26T09:57:30.240Z,15.44
2022-09-26T10:00:19.056Z,15.22
2022-09-26T10:03:38.940Z,15.27
2022-09-26T10:06:45.794Z,15.23
2022-09-26T10:09:40.868Z,15.39
2022-09-26T10:12:51.430Z,15.65
2022-09-26T10:16:02.153Z,15.78
2022-09-26T10:19:12.428Z,15.86
2022-09-26T10:21:59.747Z,15.86
2022-09-26T10:24:48.985Z,15.77
2022-09-26T10:27:59.265Z,15.91
2022-09-26T10:30:50.146Z,15.97
2022-09-26T10:33:46.122Z,16.19
2022-09-26T10:36:37.111Z,16.43
2022-09-26T10:39:43.336Z,16.73
2022-09-26T10:42:32.457Z,16.95
2022-09-26T10:45:27.489Z,17.20
2022-09-26T10:48:48.051Z,17.36
2022-09-26T10:52:04.676Z,17.07
2022-09-26T10:54:57.465Z,16.72
2022-09-26T10:57:47.244Z,16.42
2022-09-26T11:00:41.227Z,16.13
2022-09-26T11:03:42.585Z,16.34
2022-09-26T11:06:45.078Z,16.37
2022-09-26T11:09:41.999Z,16.33
2022-09-26T11:13:02.429Z,16.45
2022-09-26T11:16:01.504Z,16.44
2022-09-26T11:18:57.283Z,16.36
2022-09-26T11:21:51.542Z,16.36
2022-09-26T11:24:46.080Z,16.24
2022-09-26T11:27:44.014Z,16.09
2022-09-26T11:30:42.068Z,15.91
2022-09-26T11:33:30.573Z,15.71
2022-09-26T11:37:11.620Z,15.58
2022-09-26T11:40:13.575Z,15.58
2022-09-26T11:43:13.634Z,15.39
2022-09-26T11:46:22.486Z,15.25
2022-09-26T11:49:39.754Z,15.32
2022-09-26T11:53:16.028Z,15.43
2022-09-26T11:56:25.187Z,15.68
2022-09-26T11:59:28.937Z,15.69
2022-09-26T12:02:40.073Z,15.76
2022-09-26T12:05:35.276Z,15.99
2022-09-26T12:08:48.214Z,16.28
2022-09-26T12:11:45.569Z,16.45
2022-09-26T12:14:40.562Z,16.69
2022-09-26T12:17:41.040Z,16.62
2022-09-26T12:20:40.272Z,16.72
2022-09-26T12:23:33.831Z,16.59
2022-09-26T12:26:27.693Z,16.78
2022-09-26T12:29:32.317Z,16.75
2022-09-26T12:32:34.955Z,16.49
2022-09-26T12:35:35.871Z,16.41
2022-09-26T12:38:35.733Z,16.48
2022-09-26T12:41:42.890Z,16.49
2022-09-26T12:44:49.066Z,16.67
2022-09-26T12:48:00.540Z,16.94
2022-09-26T12:50:59.451Z,17.29
2022-09-26T12:54:10.074Z,17.45
2022-09-26T12:57:04.446Z,17.31
2022-09-26T13:00:12.967Z,17.27
2022-09-26T13:03:32.995Z,17.00
2022-09-26T13:07:14.842Z,16.92
2022-09-26T13:10:17.308Z,16.71
2022-09-26T13:13:31.368Z,16.65
2022-09-26T13:16:31.767Z,16.61
2022-09-26T13:19:25.112Z,16.44
2022-09-26T13:22:27.651Z,16.46
2022-09-26T13:25:20.891Z,16.39
2022-09-26T13:28:14.986Z,16.30
2022-09-26T13:31:06.712Z,16.06
2022-09-26T13:34:03.419Z,15.86
2022-09-26T13:36:51.129Z,15.82
2022-09-26T13:39:48.209Z,15.86
2022-09-26T13:42:42.870Z,15.80
2022-09-26T13:45:39.959Z,15.79
2022-09-26T13:48:35.944Z,15.97
2022-09-26T13:51:27.423Z,16.01
2022-09-26T13:54:21.809Z,16.00
2022-09-26T13:57:31.891Z,16.25
2022-09-26T14:00:49.443Z,16.37
2022-09-26T14:03:42.423Z,16.55
2022-09-26T14:06:34.286Z,16.56
2022-09-26T14:09:25.354Z,16.56
2022-09-26T14:12:31.678Z,16.62
2022-09-26T14:15:22.856Z,16.70
2022-09-26T14:18:23.483Z,16.80
2022-09-26T14:21:19.282Z,16.78
2022-09-26T14:24:30.761Z,16.76
2022-09-26T14:27:44.426Z,16.58
2022-09-26T14:30:33.482Z,16.40
2022-09-26T14:33:25.332Z,16.32
2022-09-26T14:36:24.870Z,16.27
2022-09-26T14:39:37.094Z,16.29
2022-09-26T14:42:27.043Z,16.18
2022-09-26T14:45:23.173Z,16.36
2022-09-26T14:48:17.401Z,16.35
2022-09-26T14:51:22.656Z,16.21
2022-09-26T14:54:22.581Z,16.32
2022-09-26T14:57:21.631Z,16.43
2022-09-26T15:00:36.761Z,16.40
2022-09-26T15:03:24.733Z,16.29
2022-09-26T15:06:14.733Z,16.00
2022-09-26T15:09:10.429Z,15.98
2022-09-26T15:12:00.452Z,15.82
2022-09-26T15:14:52.983Z,15.79
2022-09-26T15:17:41.912Z,15.73
2022-09-26T15:20:32.150Z,15.72
2022-09-26T15:23:24.765Z,15.69
2022-09-26T15:26:11.750Z,15.61
2022-09-26T15:28:59.495Z,15.50
2022-09-26T15:31:47.282Z,15.44
2022-09-26T15:34:36.180Z,15.51
2022-09-26T15:37:24.900Z,15.59
2022-09-26T15:40:17.604Z,15.63
2022-09-26T15:43:11.741Z,15.51
2022-09-26T15:45:59.487Z,15.59
2022-09-26T15:48:45.878Z,15.62
2022-09-26T15:51:39.110Z,15.65
2022-09-26T15:54:29.686Z,15.63
2022-09-26T15:57:17.907Z,15.66
2022-09-26T16:00:05.447Z,15.55
2022-09-26T16:02:52.488Z,15.57
2022-09-26T16:05:39.281Z,15.39
2022-09-26T16:08:36.489Z,15.44
2022-09-26T16:11:24.195Z,15.33
2022-09-26T16:14:25.823Z,15.33
2022-09-26T16:17:20.317Z,15.27
2022-09-26T16:20:26.003Z,15.23
2022-09-26T16:23:27.249Z,15.16
2022-09-26T16:26:23.486Z,15.01
2022-09-26T16:29:10.965Z,14.98
2022-09-26T16:31:59.580Z,14.86
2022-09-26T16:34:46.505Z,14.67
2022-09-26T16:37:33.160Z,14.77
2022-09-26T16:40:20.116Z,14.70
2022-09-26T16:43:19.054Z,14.63
2022-09-26T16:46:09.416Z,14.61
2022-09-26T16:48:59.570Z,14.46
2022-09-26T16:52:29.115Z,14.36
2022-09-26T16:55:16.123Z,14.18
2022-09-26T16:58:05.691Z,14.20
2022-09-26T17:01:10.103Z,13.99
2022-09-26T17:03:58.049Z,14.04
2022-09-26T17:06:44.970Z,13.92
2022-09-26T17:09:33.364Z,13.91
2022-09-26T17:12:22.601Z,13.69
2022-09-26T17:15:20.019Z,13.66
2022-09-26T17:18:09.028Z,13.62
2022-09-26T17:20:57.173Z,13.60
2022-09-26T17:23:44.186Z,13.59
2022-09-26T17:26:34.971Z,13.47
2022-09-26T17:29:26.381Z,13.43
2022-09-26T17:32:16.518Z,13.37
2022-09-26T17:35:06.146Z,13.36
2022-09-26T17:37:53.111Z,13.36
2022-09-26T17:40:43.897Z,13.34
2022-09-26T17:43:37.332Z,13.28
2022-09-26T17:46:24.276Z,13.29
2022-09-26T17:49:16.840Z,13.19
2022-09-26T17:52:11.091Z,13.12
2022-09-26T17:55:01.535Z,13.15
2022-09-26T17:57:48.564Z,13.16
2022-09-26T18:00:38.969Z,13.11
2022-09-26T18:03:28.782Z,12.94
2022-09-26T18:06:15.642Z,12.93
2022-09-26T18:09:10.249Z,12.85
2022-09-26T18:12:00.880Z,12.82
2022-09-26T18:14:47.738Z,12.77
2022-09-26T18:17:35.965Z,12.71
2022-09-26T18:20:28.358Z,12.77
2022-09-26T18:23:18.975Z,12.86
2022-09-26T18:26:07.508Z,12.89
2022-09-26T18:28:56.859Z,12.93
2022-09-26T18:31:46.311Z,12.84
2022-09-26T18:34:34.396Z,12.74
2022-09-26T18:37:21.150Z,12.84
2022-09-26T18:40:11.315Z,12.74
2022-09-26T18:42:59.118Z,12.75
2022-09-26T18:45:46.093Z,12.66
2022-09-26T18:48:36.267Z,12.78
2022-09-26T18:51:24.304Z,12.80
2022-09-26T18:54:14.448Z,12.75
2022-09-26T18:57:18.205Z,12.79
2022-09-26T19:00:05.837Z,12.83
2022-09-26T19:02:52.725Z,12.80
2022-09-26T19:05:39.581Z,12.79
2022-09-26T19:08:35.326Z,12.74
2022-09-26T19:11:23.689Z,12.83
2022-09-26T19:14:15.027Z,12.85
2022-09-26T19:17:01.874Z,12.80
2022-09-26T19:19:48.679Z,12.90
2022-09-26T19:22:35.270Z,12.87
2022-09-26T19:25:23.492Z,12.81
2022-09-26T19:28:16.313Z,12.86
2022-09-26T19:31:03.884Z,12.89
2022-09-26T19:33:50.960Z,12.81
2022-09-26T19:36:37.974Z,12.79
2022-09-26T19:39:24.777Z,12.83
2022-09-26T19:42:14.468Z,12.66
2022-09-26T19:45:01.921Z,12.80
2022-09-26T19:47:51.108Z,12.82
2022-09-26T19:50:40.167Z,12.71
2022-09-26T19:53:27.048Z,12.75
2022-09-26T19:56:13.673Z,12.81
2022-09-26T19:59:02.050Z,12.95
2022-09-26T20:01:49.002Z,12.89
2022-09-26T20:04:35.569Z,12.89
2022-09-26T20:07:22.391Z,12.95
2022-09-26T20:10:15.755Z,13.00
2022-09-26T20:13:04.108Z,13.07
2022-09-26T20:15:52.807Z,13.02
2022-09-26T20:18:39.173Z,12.87
2022-09-26T20:21:29.252Z,13.04
2022-09-26T20:24:21.219Z,12.89
2022-09-26T20:27:11.852Z,12.74
2022-09-26T20:30:15.753Z,12.75
2022-09-26T20:33:04.325Z,12.62
2022-09-26T20:35:54.009Z,12.56
2022-09-26T20:38:43.571Z,12.62
2022-09-26T20:41:33.021Z,12.73
2022-09-26T20:44:27.067Z,12.61
2022-09-26T20:47:18.511Z,12.61
2022-09-26T20:50:06.948Z,12.56
2022-09-26T20:52:53.536Z,12.42
2022-09-26T20:55:44.015Z,12.39
2022-09-26T20:58:30.699Z,12.59
2022-09-26T21:01:19.305Z,12.65
2022-09-26T21:04:05.990Z,12.51
2022-09-26T21:06:54.024Z,12.52
2022-09-26T21:09:41.881Z,12.48
2022-09-26T21:12:28.635Z,12.37
2022-09-26T21:15:15.578Z,12.39
2022-09-26T21:18:04.879Z,12.51
2022-09-26T21:20:52.083Z,12.45
2022-09-26T21:23:42.720Z,12.35
2022-09-26T21:26:31.318Z,12.45
2022-09-26T21:29:18.677Z,12.51
2022-09-26T21:32:08.631Z,12.42
2022-09-26T21:34:59.591Z,12.31
2022-09-26T21:37:47.864Z,12.38
2022-09-26T21:40:40.907Z,12.39
2022-09-26T21:43:32.058Z,12.47
2022-09-26T21:46:18.630Z,12.44
2022-09-26T21:49:05.314Z,12.47
2022-09-26T21:51:56.713Z,12.47
2022-09-26T21:54:45.338Z,12.46
2022-09-26T21:57:38.915Z,12.30
2022-09-26T22:00:25.504Z,12.37
2022-09-26T22:03:12.192Z,12.32
2022-09-26T22:06:01.487Z,12.25
2022-09-26T22:08:51.527Z,12.15
2022-09-26T22:11:39.864Z,12.23
2022-09-26T22:14:28.746Z,12.14
2022-09-26T22:17:15.475Z,12.10
2022-09-26T22:20:02.877Z,12.12
2022-09-26T22:22:50.087Z,12.02
2022-09-26T22:25:40.800Z,11.97
2022-09-26T22:28:29.841Z,11.93
2022-09-26T22:31:18.642Z,11.78
2022-09-26T22:34:05.725Z,11.75
2022-09-26T22:36:52.211Z,11.75
2022-09-26T22:39:38.989Z,11.86
2022-09-26T22:42:25.669Z,12.01
2022-09-26T22:45:12.691Z,11.91
2022-09-26T22:48:01.027Z,11.84
2022-09-26T22:50:47.824Z,11.90
2022-09-26T22:53:36.780Z,11.86
2022-09-26T22:56:23.284Z,11.97
2022-09-26T22:59:11.045Z,11.99
2022-09-26T23:01:58.158Z,11.90
2022-09-26T23:04:48.866Z,12.01
2022-09-26T23:07:35.476Z,11.92
2022-09-26T23:10:22.836Z,11.91
2022-09-26T23:13:09.734Z,11.94
2022-09-26T23:15:56.636Z,11.96
2022-09-26T23:18:44.477Z,12.02
2022-09-26T23:21:32.446Z,12.06
2022-09-26T23:24:19.141Z,12.06
2022-09-26T23:27:05.945Z,12.18
2022-09-26T23:29:52.582Z,12.20
2022-09-26T23:32:39.280Z,12.17
2022-09-26T23:35:25.993Z,12.07
2022-09-26T23:38:14.121Z,11.95
2022-09-26T23:41:01.066Z,12.07
2022-09-26T23:43:47.808Z,12.13
2022-09-26T23:46:34.799Z,12.06
2022-09-26T23:49:21.569Z,12.10
2022-09-26T23:52:08.332Z,12.09
2022-09-26T23:54:56.519Z,12.12
2022-09-26T23:57:43.433Z,12.03
